Detroit, Michigan
Current Conditions -  °F | °C
As of 9:00 AM on Monday 24 Nov 2014 (Local Time) from CYQG Reporting Station
Light Rain Light Rain  
Wind Chill: 54°   Ceiling: 5500
Heat Index: 54°   Visibility: 15mi
Dew Point: 50°   Wind: 21mph
Humidity: 88%   Direction: 210°SSW
Pressure: 29.15"   Gusts: 29mph
Location:  42.33°N, 83.05°W
Report Text: CYQG 241400Z 21018G25KT 15SM -RA FEW012 BKN055 BKN072 12/10 A2915 RMK CF1SC5AC1 SLP872 DENSITY ALT 1200FT
Loading
Personal Weather Stations






























Interactive Weather Map New forecast layout! Learn more

10-Day Weather Forecast

Advertisements
Track Severe Weather on mobile